createdAt,value
2022-09-09T00:01:40.956Z,4.50
2022-09-09T00:04:23.022Z,2.70
2022-09-09T00:07:23.015Z,2.20
2022-09-09T00:09:53.037Z,2.95
2022-09-09T00:12:38.945Z,1.67
2022-09-09T00:15:07.009Z,1.90
2022-09-09T00:18:01.155Z,1.92
2022-09-09T00:20:40.281Z,1.70
2022-09-09T00:23:16.002Z,1.87
2022-09-09T00:25:52.386Z,4.95
2022-09-09T00:28:21.682Z,1.70
2022-09-09T00:30:49.432Z,4.85
2022-09-09T00:33:22.184Z,1.87
2022-09-09T00:35:50.682Z,1.70
2022-09-09T00:38:29.562Z,1.50
2022-09-09T00:41:04.494Z,3.28
2022-09-09T00:43:42.404Z,4.43
2022-09-09T00:46:48.139Z,6.60
2022-09-09T00:49:23.810Z,3.12
2022-09-09T00:52:05.863Z,2.70
2022-09-09T00:55:03.713Z,1.80
2022-09-09T00:57:32.707Z,1.50
2022-09-09T01:00:21.453Z,1.90
2022-09-09T01:03:14.223Z,1.75
2022-09-09T01:05:47.143Z,7.00
2022-09-09T01:08:29.173Z,2.25
2022-09-09T01:10:58.838Z,2.67
2022-09-09T01:13:34.799Z,1.90
2022-09-09T01:16:04.654Z,1.98
2022-09-09T01:18:37.032Z,2.33
2022-09-09T01:21:15.718Z,4.03
2022-09-09T01:23:46.480Z,3.90
2022-09-09T01:26:29.182Z,2.25
2022-09-09T01:28:56.741Z,3.97
2022-09-09T01:31:31.818Z,2.12
2022-09-09T01:33:59.414Z,1.55
2022-09-09T01:36:37.354Z,1.98
2022-09-09T01:39:04.686Z,2.67
2022-09-09T01:41:32.697Z,6.07
2022-09-09T01:44:00.128Z,5.72
2022-09-09T01:46:29.066Z,6.15
2022-09-09T01:48:58.354Z,2.28
2022-09-09T01:51:25.520Z,2.85
2022-09-09T01:53:52.825Z,2.00
2022-09-09T01:56:37.869Z,2.08
2022-09-09T01:59:25.900Z,4.40
2022-09-09T02:02:03.746Z,3.10
2022-09-09T02:04:43.389Z,2.97
2022-09-09T02:07:38.490Z,2.33
2022-09-09T02:10:23.082Z,2.03
2022-09-09T02:12:56.962Z,3.35
2022-09-09T02:15:32.135Z,2.67
2022-09-09T02:17:59.803Z,3.20
2022-09-09T02:20:30.538Z,3.58
2022-09-09T02:23:00.779Z,1.87
2022-09-09T02:25:30.600Z,2.10
2022-09-09T02:30:29.504Z,5.10
2022-09-09T02:32:58.850Z,2.42
2022-09-09T02:35:27.186Z,3.53
2022-09-09T02:37:56.357Z,5.37
2022-09-09T02:40:23.887Z,2.85
2022-09-09T02:42:51.994Z,2.97
2022-09-09T02:45:26.172Z,4.18
2022-09-09T02:48:12.209Z,4.40
2022-09-09T02:50:50.154Z,2.35
2022-09-09T02:53:20.483Z,2.30
2022-09-09T02:55:49.806Z,4.05
2022-09-09T02:58:18.970Z,3.78
2022-09-09T03:03:17.370Z,2.62
2022-09-09T03:05:45.615Z,3.03
2022-09-09T03:08:14.031Z,25.83
2022-09-09T03:10:42.507Z,2.30
2022-09-09T03:13:10.894Z,2.60
2022-09-09T03:15:39.082Z,5.18
2022-09-09T03:18:08.298Z,2.28
2022-09-09T03:20:35.202Z,3.37
2022-09-09T03:23:03.387Z,4.03
2022-09-09T03:25:30.929Z,2.50
2022-09-09T03:27:57.889Z,4.47
2022-09-09T03:30:27.223Z,2.22
2022-09-09T03:32:56.200Z,4.10
2022-09-09T03:35:23.798Z,1.83
2022-09-09T03:37:50.762Z,2.67
2022-09-09T03:40:19.111Z,2.53
2022-09-09T03:42:46.211Z,2.35
2022-09-09T03:45:13.242Z,2.20
2022-09-09T03:47:40.799Z,7.53
2022-09-09T03:50:10.489Z,7.72
2022-09-09T03:52:38.744Z,2.58
2022-09-09T03:55:07.225Z,2.20
2022-09-09T03:57:36.858Z,2.97
2022-09-09T04:00:06.030Z,4.68
2022-09-09T04:02:44.530Z,4.97
2022-09-09T04:05:12.449Z,3.40
2022-09-09T04:07:40.878Z,5.05
2022-09-09T04:10:09.444Z,3.62
2022-09-09T04:12:37.093Z,6.97
2022-09-09T04:15:04.226Z,2.83
2022-09-09T04:17:31.771Z,3.42
2022-09-09T04:19:58.922Z,2.62
2022-09-09T04:22:25.844Z,4.72
2022-09-09T04:24:54.198Z,3.05
2022-09-09T04:27:21.510Z,4.62
2022-09-09T04:29:48.470Z,4.18
2022-09-09T04:32:15.945Z,5.45
2022-09-09T04:34:43.396Z,3.78
2022-09-09T04:37:10.746Z,4.93
2022-09-09T04:39:39.095Z,2.75
2022-09-09T04:42:06.730Z,5.05
2022-09-09T04:44:33.614Z,3.75
2022-09-09T04:47:00.543Z,3.85
2022-09-09T04:49:27.755Z,2.97
2022-09-09T04:51:55.440Z,4.07
2022-09-09T04:54:22.771Z,3.55
2022-09-09T04:56:51.719Z,8.55
2022-09-09T04:59:19.307Z,3.90
2022-09-09T05:01:46.658Z,4.28
2022-09-09T05:04:15.105Z,2.97
2022-09-09T05:06:43.234Z,3.33
2022-09-09T05:09:11.910Z,5.60
2022-09-09T05:11:39.170Z,6.40
2022-09-09T05:14:06.321Z,2.75
2022-09-09T05:16:33.357Z,6.28
2022-09-09T05:19:00.643Z,4.75
2022-09-09T05:21:29.050Z,3.78
2022-09-09T05:23:55.915Z,3.83
2022-09-09T05:26:25.482Z,2.58
2022-09-09T05:28:52.758Z,3.55
2022-09-09T05:31:20.432Z,2.92
2022-09-09T05:33:50.341Z,4.15
2022-09-09T05:36:19.231Z,3.37
2022-09-09T05:38:47.552Z,3.62
2022-09-09T05:41:18.276Z,5.60
2022-09-09T05:43:47.901Z,3.40
2022-09-09T05:46:17.998Z,3.58
2022-09-09T05:48:47.456Z,7.75
2022-09-09T05:51:21.771Z,2.40
2022-09-09T05:53:49.510Z,2.97
2022-09-09T05:56:19.040Z,8.32
2022-09-09T05:58:47.902Z,6.07
2022-09-09T06:01:18.023Z,3.42
2022-09-09T06:03:46.615Z,4.53
2022-09-09T06:06:16.356Z,3.60
2022-09-09T06:08:46.879Z,3.00
2022-09-09T06:11:17.582Z,4.53
2022-09-09T06:13:44.827Z,6.68
2022-09-09T06:16:16.783Z,4.00
2022-09-09T06:18:48.285Z,4.55
2022-09-09T06:21:22.014Z,4.03
2022-09-09T06:23:49.632Z,5.45
2022-09-09T06:26:25.187Z,6.20
2022-09-09T06:28:55.583Z,2.55
2022-09-09T06:31:29.280Z,2.63
2022-09-09T06:33:59.234Z,2.75
2022-09-09T06:36:28.045Z,8.38
2022-09-09T06:38:55.159Z,8.05
2022-09-09T06:41:23.767Z,2.08
2022-09-09T06:43:50.860Z,4.55
2022-09-09T06:46:24.979Z,3.00
2022-09-09T06:48:52.211Z,8.85
2022-09-09T06:51:22.170Z,3.33
2022-09-09T06:53:51.807Z,6.55
2022-09-09T06:56:34.105Z,4.95
2022-09-09T06:59:04.875Z,2.97
2022-09-09T07:01:37.679Z,1.70
2022-09-09T07:04:09.928Z,1.30
2022-09-09T07:06:44.097Z,1.75
2022-09-09T07:09:13.396Z,6.10
2022-09-09T07:11:43.591Z,4.45
2022-09-09T07:14:14.490Z,1.58
2022-09-09T07:16:43.231Z,2.47
2022-09-09T07:19:11.613Z,2.37
2022-09-09T07:21:38.822Z,2.50
2022-09-09T07:24:08.381Z,6.05
2022-09-09T07:26:36.270Z,2.62
2022-09-09T07:29:04.083Z,2.67
2022-09-09T07:31:34.211Z,2.15
2022-09-09T07:34:02.072Z,2.22
2022-09-09T07:36:34.652Z,10.40
2022-09-09T07:39:04.654Z,4.90
2022-09-09T07:41:38.526Z,19.20
2022-09-09T07:44:07.745Z,2.35
2022-09-09T07:46:35.578Z,3.05
2022-09-09T07:49:03.237Z,3.10
2022-09-09T07:51:36.607Z,2.28
2022-09-09T07:54:06.174Z,4.85
2022-09-09T07:56:34.103Z,1.20
2022-09-09T07:59:02.126Z,1.35
2022-09-09T08:01:31.925Z,10.10
2022-09-09T08:04:05.031Z,5.15
2022-09-09T08:06:40.331Z,3.42
2022-09-09T08:09:08.891Z,3.83
2022-09-09T08:11:39.309Z,2.78
2022-09-09T08:14:08.713Z,5.97
2022-09-09T08:19:05.192Z,3.80
2022-09-09T08:21:34.148Z,3.20
2022-09-09T08:24:06.229Z,2.87
2022-09-09T08:26:35.647Z,7.03
2022-09-09T08:29:05.184Z,2.08
2022-09-09T08:31:35.256Z,5.68
2022-09-09T08:34:06.748Z,3.17
2022-09-09T08:36:39.854Z,3.08
2022-09-09T08:39:08.309Z,2.28
2022-09-09T08:42:01.348Z,4.37
2022-09-09T08:44:56.652Z,9.38
2022-09-09T08:47:40.246Z,3.03
2022-09-09T08:50:20.774Z,2.62
2022-09-09T08:53:04.763Z,5.80
2022-09-09T08:55:56.256Z,5.55
2022-09-09T08:58:32.809Z,1.52
2022-09-09T09:01:07.714Z,8.13
2022-09-09T09:03:47.897Z,2.08
2022-09-09T09:06:18.673Z,1.10
2022-09-09T09:09:08.026Z,5.47
2022-09-09T09:14:20.180Z,3.30
2022-09-09T09:17:10.106Z,0.80
2022-09-09T09:19:40.617Z,1.10
2022-09-09T09:22:23.238Z,4.28
2022-09-09T09:25:09.313Z,3.42
2022-09-09T09:27:50.432Z,3.17
2022-09-09T09:30:28.953Z,1.25
2022-09-09T09:33:03.293Z,1.48
2022-09-09T09:35:30.823Z,2.75
2022-09-09T09:40:56.026Z,4.22
2022-09-09T09:43:29.516Z,5.43
2022-09-09T09:46:16.872Z,2.37
2022-09-09T09:48:47.293Z,2.35
2022-09-09T09:51:18.181Z,2.17
2022-09-09T09:53:45.996Z,1.15
2022-09-09T09:56:14.553Z,4.40
2022-09-09T09:58:47.295Z,2.65
2022-09-09T10:01:25.737Z,1.73
2022-09-09T10:04:00.383Z,2.20
2022-09-09T10:06:31.928Z,0.75
2022-09-09T10:08:59.034Z,1.35
2022-09-09T10:11:46.370Z,1.17
2022-09-09T10:14:33.180Z,1.45
2022-09-09T10:17:38.717Z,9.85
2022-09-09T10:20:15.470Z,1.58
2022-09-09T10:22:48.531Z,3.15
2022-09-09T10:25:21.337Z,1.40
2022-09-09T10:28:03.943Z,2.53
2022-09-09T10:30:52.228Z,3.97
2022-09-09T10:34:05.725Z,4.50
2022-09-09T10:36:33.015Z,2.42
2022-09-09T10:39:04.240Z,11.82
2022-09-09T10:41:46.715Z,1.70
2022-09-09T10:44:22.597Z,1.62
2022-09-09T10:47:43.853Z,4.78
2022-09-09T10:50:57.111Z,3.30
2022-09-09T10:53:25.534Z,0.75
2022-09-09T10:55:56.603Z,2.87
2022-09-09T10:58:33.876Z,13.52
2022-09-09T11:01:03.931Z,3.53
2022-09-09T11:06:05.506Z,4.62
2022-09-09T11:08:34.576Z,2.30
2022-09-09T11:11:24.900Z,14.38
2022-09-09T11:14:00.307Z,2.55
2022-09-09T11:16:49.479Z,15.23
2022-09-09T11:19:23.583Z,10.07
2022-09-09T11:21:52.901Z,2.25
2022-09-09T11:24:29.994Z,1.40
2022-09-09T11:27:01.499Z,0.85
2022-09-09T11:29:50.372Z,2.00
2022-09-09T11:32:36.004Z,2.97
2022-09-09T11:35:18.651Z,1.15
2022-09-09T11:38:04.725Z,1.42
2022-09-09T11:40:33.302Z,2.40
2022-09-09T11:43:06.947Z,0.60
2022-09-09T11:45:34.817Z,0.85
2022-09-09T11:48:02.267Z,2.62
2022-09-09T11:50:32.136Z,8.60
2022-09-09T11:53:23.917Z,2.22
2022-09-09T11:56:05.856Z,1.77
2022-09-09T11:58:41.962Z,2.85
2022-09-09T12:01:27.727Z,2.30
2022-09-09T12:04:10.719Z,1.40
2022-09-09T12:06:53.774Z,2.37
2022-09-09T12:09:25.679Z,5.68
2022-09-09T12:11:52.779Z,6.90
2022-09-09T12:14:37.592Z,1.92
2022-09-09T12:17:16.675Z,2.05
2022-09-09T12:19:43.522Z,0.60
2022-09-09T12:22:20.662Z,2.28
2022-09-09T12:25:00.031Z,0.40
2022-09-09T12:32:39.053Z,1.75
2022-09-09T12:35:21.901Z,1.08
2022-09-09T12:38:00.812Z,1.35
2022-09-09T12:40:57.288Z,1.77
2022-09-09T12:43:25.997Z,2.22
2022-09-09T12:45:58.787Z,1.40
2022-09-09T12:48:32.605Z,5.18
2022-09-09T12:51:00.489Z,1.98
2022-09-09T12:53:39.800Z,2.80
2022-09-09T12:56:09.012Z,1.67
2022-09-09T12:58:38.422Z,1.12
2022-09-09T13:01:06.608Z,1.90
2022-09-09T13:03:34.847Z,2.75
2022-09-09T13:06:23.652Z,0.80
2022-09-09T13:08:53.634Z,1.73
2022-09-09T13:11:27.629Z,3.03
2022-09-09T13:13:56.714Z,0.60
2022-09-09T13:16:27.842Z,4.10
2022-09-09T13:18:56.177Z,1.50
2022-09-09T13:21:33.402Z,1.10
2022-09-09T13:24:04.200Z,3.42
2022-09-09T13:26:31.610Z,2.08
2022-09-09T13:29:18.754Z,4.85
2022-09-09T13:31:46.395Z,5.53
2022-09-09T13:34:33.578Z,2.08
2022-09-09T13:37:03.483Z,1.95
2022-09-09T13:41:58.779Z,3.22
2022-09-09T13:44:31.601Z,0.60
2022-09-09T13:47:09.399Z,4.00
2022-09-09T13:49:37.537Z,3.85
2022-09-09T13:52:14.592Z,1.80
2022-09-09T13:54:42.970Z,3.67
2022-09-09T13:57:19.131Z,2.25
2022-09-09T14:00:04.043Z,2.70
2022-09-09T14:02:32.264Z,6.12
2022-09-09T14:04:59.198Z,1.37
2022-09-09T14:07:26.339Z,1.65
2022-09-09T14:09:53.520Z,1.58
2022-09-09T14:12:21.169Z,1.45
2022-09-09T14:14:48.092Z,4.50
2022-09-09T14:17:15.835Z,4.87
2022-09-09T14:19:43.551Z,6.30
2022-09-09T14:22:10.555Z,2.03
2022-09-09T14:24:37.727Z,1.55
2022-09-09T14:27:04.621Z,2.05
2022-09-09T14:29:31.539Z,1.50
2022-09-09T14:31:58.671Z,2.92
2022-09-09T14:34:25.530Z,2.90
2022-09-09T14:36:52.413Z,2.75
2022-09-09T14:39:19.539Z,5.87
2022-09-09T14:41:46.811Z,1.83
2022-09-09T14:44:13.688Z,2.87
2022-09-09T14:46:40.803Z,3.37
2022-09-09T14:49:07.655Z,1.62
2022-09-09T14:51:35.192Z,0.95
2022-09-09T14:54:03.053Z,4.37
2022-09-09T14:56:32.768Z,0.85
2022-09-09T15:01:30.538Z,3.05
2022-09-09T15:03:59.822Z,4.97
2022-09-09T15:06:28.459Z,5.15
2022-09-09T15:08:58.661Z,6.28
2022-09-09T15:11:28.784Z,4.03
2022-09-09T15:13:55.923Z,2.40
2022-09-09T15:16:26.970Z,3.45
2022-09-09T15:18:56.883Z,2.35
2022-09-09T15:21:25.774Z,3.25
2022-09-09T15:23:53.275Z,1.65
2022-09-09T15:26:20.604Z,4.62
2022-09-09T15:28:48.521Z,4.47
2022-09-09T15:31:20.511Z,2.83
2022-09-09T15:33:49.400Z,2.20
2022-09-09T15:36:25.283Z,6.72
2022-09-09T15:38:52.918Z,1.83
2022-09-09T15:41:20.978Z,3.62
2022-09-09T15:43:57.597Z,4.05
2022-09-09T15:46:37.065Z,5.28
2022-09-09T15:49:05.133Z,3.35
2022-09-09T15:51:47.672Z,1.87
2022-09-09T15:54:19.111Z,4.82
2022-09-09T15:56:47.539Z,1.65
2022-09-09T15:59:15.801Z,8.77
2022-09-09T16:01:43.229Z,2.30
2022-09-09T16:04:10.985Z,16.27
2022-09-09T16:06:37.919Z,12.80
2022-09-09T16:09:06.660Z,7.65
2022-09-09T16:11:36.952Z,4.13
2022-09-09T16:14:04.897Z,6.22
2022-09-09T16:16:32.401Z,1.25
2022-09-09T16:19:02.207Z,5.62
2022-09-09T16:21:31.238Z,5.00
2022-09-09T16:24:00.574Z,6.93
2022-09-09T16:26:28.709Z,10.60
2022-09-09T16:28:55.775Z,12.95
2022-09-09T16:31:24.523Z,18.52
2022-09-09T16:33:52.290Z,7.75
2022-09-09T16:36:21.834Z,16.62
2022-09-09T16:38:48.731Z,12.75
2022-09-09T16:41:16.070Z,12.60
2022-09-09T16:43:46.014Z,10.85
2022-09-09T16:46:20.521Z,7.18
2022-09-09T16:48:48.502Z,5.80
2022-09-09T16:51:21.403Z,6.68
2022-09-09T16:53:48.523Z,10.13
2022-09-09T16:56:18.402Z,7.78
2022-09-09T17:01:15.490Z,9.73
2022-09-09T17:03:45.404Z,8.88
2022-09-09T17:08:46.241Z,10.30
2022-09-09T17:11:19.146Z,7.22
2022-09-09T17:13:47.487Z,6.97
2022-09-09T17:16:18.535Z,12.40
2022-09-09T17:18:47.057Z,8.85
2022-09-09T17:21:16.211Z,9.95
2022-09-09T17:23:46.562Z,22.73
2022-09-09T17:26:18.815Z,7.78
2022-09-09T17:28:49.382Z,10.95
2022-09-09T17:31:17.861Z,8.73
2022-09-09T17:33:50.438Z,15.23
2022-09-09T17:36:23.857Z,11.12
2022-09-09T17:38:50.970Z,11.70
2022-09-09T17:41:26.213Z,12.48
2022-09-09T17:43:53.402Z,9.98
2022-09-09T17:46:24.594Z,13.73
2022-09-09T17:48:57.214Z,15.35
2022-09-09T17:51:26.128Z,12.50
2022-09-09T17:53:55.732Z,18.95
2022-09-09T17:56:24.523Z,13.05
2022-09-09T17:58:52.629Z,15.57
2022-09-09T18:01:21.969Z,18.17
2022-09-09T18:03:50.010Z,17.05
2022-09-09T18:06:20.720Z,10.73
2022-09-09T18:08:49.550Z,10.40
2022-09-09T18:11:17.807Z,7.12
2022-09-09T18:13:49.055Z,5.72
2022-09-09T18:16:16.411Z,12.27
2022-09-09T18:18:43.283Z,8.52
2022-09-09T18:21:10.180Z,14.80
2022-09-09T18:23:49.385Z,9.30
2022-09-09T18:26:27.492Z,11.85
2022-09-09T18:28:57.125Z,14.02
2022-09-09T18:31:27.097Z,9.85
2022-09-09T18:33:56.756Z,15.20
2022-09-09T18:36:29.683Z,8.47
2022-09-09T18:38:58.859Z,12.45
2022-09-09T18:41:29.501Z,11.50
2022-09-09T18:44:02.305Z,9.15
2022-09-09T18:46:30.979Z,12.68
2022-09-09T18:48:58.134Z,9.60
2022-09-09T18:51:26.835Z,14.30
2022-09-09T18:54:00.501Z,11.00
2022-09-09T18:56:29.504Z,15.77
2022-09-09T18:59:01.382Z,10.65
2022-09-09T19:01:28.967Z,6.72
2022-09-09T19:03:58.946Z,7.37
2022-09-09T19:06:28.222Z,9.45
2022-09-09T19:08:57.466Z,14.95
2022-09-09T19:11:27.905Z,6.28
2022-09-09T19:13:59.816Z,11.45
2022-09-09T19:16:29.308Z,8.82
2022-09-09T19:19:02.314Z,4.10
2022-09-09T19:21:31.712Z,7.60
2022-09-09T19:24:06.214Z,16.83
2022-09-09T19:26:40.466Z,5.85
2022-09-09T19:29:10.154Z,11.60
2022-09-09T19:31:37.914Z,13.02
2022-09-09T19:34:05.097Z,6.75
2022-09-09T19:36:32.570Z,4.15
2022-09-09T19:39:00.254Z,10.77
2022-09-09T19:41:28.384Z,5.47
2022-09-09T19:44:01.752Z,5.32
2022-09-09T19:46:30.495Z,9.23
2022-09-09T19:48:58.407Z,13.62
2022-09-09T19:51:26.603Z,7.78
2022-09-09T19:53:56.397Z,10.02
2022-09-09T19:56:26.381Z,6.28
2022-09-09T19:58:54.535Z,4.57
2022-09-09T20:01:29.830Z,6.03
2022-09-09T20:03:59.740Z,12.05
2022-09-09T20:06:33.349Z,13.52
2022-09-09T20:09:00.520Z,12.70
2022-09-09T20:11:28.109Z,11.40
2022-09-09T20:13:55.518Z,7.05
2022-09-09T20:16:25.083Z,10.80
2022-09-09T20:18:53.942Z,10.80
2022-09-09T20:21:26.447Z,7.40
2022-09-09T20:23:53.769Z,10.68
2022-09-09T20:26:23.383Z,8.90
2022-09-09T20:28:51.378Z,18.40
2022-09-09T20:31:24.927Z,10.50
2022-09-09T20:33:53.000Z,9.18
2022-09-09T20:36:27.007Z,6.78
2022-09-09T20:38:57.855Z,11.45
2022-09-09T20:41:28.649Z,13.18
2022-09-09T20:43:57.625Z,12.82
2022-09-09T20:46:31.683Z,14.18
2022-09-09T20:49:03.015Z,12.35
2022-09-09T20:51:33.153Z,4.20
2022-09-09T20:54:03.839Z,5.57
2022-09-09T20:56:33.615Z,5.00
2022-09-09T20:59:01.216Z,5.47
2022-09-09T21:01:28.268Z,10.20
2022-09-09T21:03:55.682Z,6.65
2022-09-09T21:06:22.825Z,10.40
2022-09-09T21:08:49.872Z,7.87
2022-09-09T21:11:17.597Z,9.40
2022-09-09T21:13:44.889Z,7.22
2022-09-09T21:16:19.439Z,10.38
2022-09-09T21:18:47.477Z,14.45
2022-09-09T21:21:15.128Z,6.10
2022-09-09T21:23:45.442Z,10.48
2022-09-09T21:26:17.834Z,10.85
2022-09-09T21:28:47.472Z,9.73
2022-09-09T21:31:15.935Z,8.05
2022-09-09T21:33:46.271Z,8.98
2022-09-09T21:36:16.292Z,10.20
2022-09-09T21:41:16.717Z,8.88
2022-09-09T21:43:44.930Z,9.35
2022-09-09T21:46:16.600Z,9.55
2022-09-09T21:48:46.758Z,8.38
2022-09-09T21:51:17.646Z,8.88
2022-09-09T21:53:47.810Z,12.75
2022-09-09T21:56:17.299Z,8.07
2022-09-09T21:58:47.466Z,14.35
2022-09-09T22:01:18.241Z,17.37
2022-09-09T22:03:48.222Z,12.07
2022-09-09T22:06:19.255Z,7.68
2022-09-09T22:08:49.434Z,13.43
2022-09-09T22:11:18.916Z,7.87
2022-09-09T22:13:48.883Z,12.48
2022-09-09T22:18:56.832Z,10.35
2022-09-09T22:21:24.608Z,8.10
2022-09-09T22:23:57.263Z,9.00
2022-09-09T22:26:26.295Z,9.07
2022-09-09T22:28:53.947Z,8.77
2022-09-09T22:31:22.682Z,8.18
2022-09-09T22:33:50.541Z,14.90
2022-09-09T22:36:17.743Z,11.85
2022-09-09T22:38:44.573Z,9.32
2022-09-09T22:41:13.766Z,11.35
2022-09-09T22:43:46.977Z,11.93
2022-09-09T22:46:18.787Z,12.80
2022-09-09T22:48:48.755Z,10.60
2022-09-09T22:51:18.735Z,13.38
2022-09-09T22:53:45.768Z,11.65
2022-09-09T22:56:17.663Z,12.02
2022-09-09T22:58:46.073Z,12.13
2022-09-09T23:01:19.274Z,10.25
2022-09-09T23:03:47.379Z,8.50
2022-09-09T23:06:32.298Z,10.82
2022-09-09T23:09:01.205Z,11.18
2022-09-09T23:11:33.313Z,9.65
2022-09-09T23:14:02.574Z,11.27
2022-09-09T23:16:33.035Z,11.20
2022-09-09T23:19:00.984Z,8.65
2022-09-09T23:21:28.975Z,8.93
2022-09-09T23:23:57.276Z,8.65
2022-09-09T23:26:25.300Z,8.75
2022-09-09T23:28:52.984Z,8.70
2022-09-09T23:31:25.667Z,10.57
2022-09-09T23:33:56.063Z,8.55
2022-09-09T23:36:24.775Z,8.77
2022-09-09T23:38:51.664Z,11.32
2022-09-09T23:41:21.166Z,8.30
2022-09-09T23:43:52.567Z,10.97
2022-09-09T23:46:22.246Z,9.73
2022-09-09T23:48:52.473Z,10.45
2022-09-09T23:51:23.834Z,10.73
2022-09-09T23:53:53.012Z,11.12
2022-09-09T23:56:22.045Z,6.47
2022-09-09T23:58:49.619Z,7.62
